createdAt,value
2019-05-23T00:02:16.157Z,93.10
2019-05-23T00:04:50.962Z,93.30
2019-05-23T00:07:22.954Z,93.40
2019-05-23T00:09:53.431Z,93.00
2019-05-23T00:12:41.610Z,93.50
2019-05-23T00:15:20.238Z,93.30
2019-05-23T00:17:49.208Z,93.30
2019-05-23T00:20:20.949Z,93.40
2019-05-23T00:22:51.259Z,93.50
2019-05-23T00:25:20.278Z,93.40
2019-05-23T00:27:49.642Z,93.70
2019-05-23T00:30:24.932Z,93.40
2019-05-23T00:32:57.751Z,93.50
2019-05-23T00:35:28.132Z,93.40
2019-05-23T00:37:57.268Z,93.40
2019-05-23T00:40:28.134Z,93.50
2019-05-23T00:42:58.884Z,93.60
2019-05-23T00:45:29.607Z,93.30
2019-05-23T00:48:00.233Z,93.50
2019-05-23T00:50:29.999Z,93.50
2019-05-23T00:52:59.346Z,93.10
2019-05-23T00:55:28.977Z,93.20
2019-05-23T00:57:59.587Z,93.30
2019-05-23T01:00:30.608Z,93.20
2019-05-23T01:03:00.057Z,93.40
2019-05-23T01:05:29.590Z,93.50
2019-05-23T01:07:59.747Z,93.60
2019-05-23T01:10:29.059Z,93.90
2019-05-23T01:12:58.075Z,93.70
2019-05-23T01:15:27.134Z,93.70
2019-05-23T01:17:56.375Z,93.60
2019-05-23T01:20:31.420Z,93.70
2019-05-23T01:23:02.060Z,93.70
2019-05-23T01:25:33.210Z,93.60
2019-05-23T01:28:02.924Z,93.90
2019-05-23T01:30:38.237Z,93.60
2019-05-23T01:33:07.768Z,93.50
2019-05-23T01:35:37.387Z,93.30
2019-05-23T01:38:08.046Z,93.30
2019-05-23T01:40:38.074Z,93.70
2019-05-23T01:43:07.858Z,93.50
2019-05-23T01:45:38.323Z,93.50
2019-05-23T01:48:07.434Z,93.60
2019-05-23T01:50:36.449Z,93.80
2019-05-23T01:53:06.219Z,93.70
2019-05-23T01:55:35.417Z,93.70
2019-05-23T01:58:05.234Z,93.50
2019-05-23T02:00:34.363Z,93.40
2019-05-23T02:03:03.747Z,93.40
2019-05-23T02:05:33.379Z,93.70
2019-05-23T02:08:02.877Z,93.60
2019-05-23T02:10:32.002Z,93.80
2019-05-23T02:13:01.361Z,93.60
2019-05-23T02:15:30.278Z,93.70
2019-05-23T02:17:59.376Z,93.80
2019-05-23T02:20:29.169Z,93.90
2019-05-23T02:22:58.526Z,94.00
2019-05-23T02:25:29.127Z,93.70
2019-05-23T02:27:58.433Z,93.50
2019-05-23T02:30:34.890Z,93.70
2019-05-23T02:32:59.379Z,93.80
2019-05-23T02:35:28.388Z,93.60
2019-05-23T02:38:20.492Z,93.90
2019-05-23T02:41:13.324Z,93.80
2019-05-23T02:43:46.648Z,93.60
2019-05-23T02:46:29.345Z,93.70
2019-05-23T02:49:00.885Z,93.80
2019-05-23T02:51:33.481Z,93.70
2019-05-23T02:54:04.117Z,93.90
2019-05-23T02:56:35.927Z,93.90
2019-05-23T02:59:35.316Z,93.80
2019-05-23T03:02:39.629Z,93.90
2019-05-23T03:05:12.146Z,93.80
2019-05-23T03:07:41.910Z,94.00
2019-05-23T03:10:12.700Z,93.80
2019-05-23T03:12:43.857Z,93.80
2019-05-23T03:15:14.719Z,93.90
2019-05-23T03:17:48.866Z,93.80
2019-05-23T03:20:20.411Z,93.80
2019-05-23T03:22:53.513Z,93.70
2019-05-23T03:26:16.572Z,93.60
2019-05-23T03:28:45.941Z,93.70
2019-05-23T03:31:30.081Z,93.80
2019-05-23T03:33:54.655Z,93.80
2019-05-23T03:36:25.055Z,93.80
2019-05-23T03:38:54.283Z,93.70
2019-05-23T03:41:23.651Z,93.80
2019-05-23T03:43:54.222Z,93.70
2019-05-23T03:46:25.836Z,93.60
2019-05-23T03:48:56.277Z,93.80
2019-05-23T03:51:26.809Z,93.80
2019-05-23T03:53:57.425Z,93.70
2019-05-23T03:56:26.762Z,93.70
2019-05-23T03:58:57.029Z,93.70
2019-05-23T04:01:46.076Z,93.80
2019-05-23T04:03:58.610Z,93.80
2019-05-23T04:06:28.255Z,93.70
2019-05-23T04:08:57.443Z,93.70
2019-05-23T04:11:27.584Z,93.70
2019-05-23T04:13:56.709Z,93.80
2019-05-23T04:16:30.228Z,93.80
2019-05-23T04:18:56.772Z,93.70
2019-05-23T04:21:26.072Z,93.50
2019-05-23T04:23:55.865Z,93.50
2019-05-23T04:26:25.055Z,93.60
2019-05-23T04:28:54.375Z,93.90
2019-05-23T04:31:23.539Z,94.20
2019-05-23T04:33:53.376Z,94.10
2019-05-23T04:36:22.779Z,93.70
2019-05-23T04:38:52.048Z,93.60
2019-05-23T04:41:21.138Z,93.50
2019-05-23T04:43:50.623Z,93.60
2019-05-23T04:46:19.972Z,93.70
2019-05-23T04:48:49.652Z,93.80
2019-05-23T04:51:18.824Z,93.70
2019-05-23T04:53:48.008Z,93.60
2019-05-23T04:56:17.155Z,93.50
2019-05-23T04:58:46.966Z,93.60
2019-05-23T05:01:18.335Z,93.40
2019-05-23T05:03:48.612Z,93.50
2019-05-23T05:06:18.267Z,93.70
2019-05-23T05:08:48.207Z,93.50
2019-05-23T05:11:17.425Z,93.70
2019-05-23T05:13:46.991Z,93.80
2019-05-23T05:16:16.246Z,93.90
2019-05-23T05:18:45.254Z,94.00
2019-05-23T05:21:14.559Z,94.00
2019-05-23T05:23:47.348Z,93.90
2019-05-23T05:26:22.611Z,93.90
2019-05-23T05:28:52.427Z,93.70
2019-05-23T05:31:21.779Z,93.50
2019-05-23T05:33:50.781Z,93.60
2019-05-23T05:36:20.336Z,93.60
2019-05-23T05:38:50.519Z,93.60
2019-05-23T05:41:20.591Z,93.30
2019-05-23T05:43:50.627Z,92.60
2019-05-23T05:46:20.431Z,92.70
2019-05-23T05:48:49.612Z,93.10
2019-05-23T05:51:18.631Z,93.20
2019-05-23T05:53:48.056Z,93.00
2019-05-23T05:56:17.777Z,92.80
2019-05-23T05:58:47.291Z,92.80
2019-05-23T06:01:32.998Z,92.70
2019-05-23T06:03:48.308Z,92.80
2019-05-23T06:06:25.286Z,92.70
2019-05-23T06:08:56.809Z,92.10
2019-05-23T06:11:26.366Z,92.60
2019-05-23T06:13:55.890Z,92.60
2019-05-23T06:16:25.051Z,92.30
2019-05-23T06:18:54.880Z,92.30
2019-05-23T06:21:26.520Z,92.70
2019-05-23T06:23:55.952Z,92.90
2019-05-23T06:26:25.088Z,93.10
2019-05-23T06:28:54.583Z,92.90
2019-05-23T06:31:24.039Z,93.10
2019-05-23T06:33:53.614Z,93.30
2019-05-23T06:36:22.707Z,93.10
2019-05-23T06:38:52.162Z,93.30
2019-05-23T06:41:22.911Z,92.80
2019-05-23T06:43:52.377Z,93.00
2019-05-23T06:46:21.556Z,93.10
2019-05-23T06:48:50.881Z,92.80
2019-05-23T06:51:22.632Z,92.90
2019-05-23T06:53:51.973Z,92.40
2019-05-23T06:56:21.853Z,92.20
2019-05-23T06:58:50.968Z,92.30
2019-05-23T07:01:22.101Z,92.60
2019-05-23T07:03:51.232Z,92.70
2019-05-23T07:06:23.259Z,92.60
2019-05-23T07:08:52.543Z,92.60
2019-05-23T07:11:23.724Z,92.30
2019-05-23T07:13:52.946Z,92.00
2019-05-23T07:16:22.050Z,91.50
2019-05-23T07:18:51.323Z,91.20
2019-05-23T07:21:21.403Z,90.50
2019-05-23T07:23:50.532Z,91.50
2019-05-23T07:26:19.862Z,91.20
2019-05-23T07:28:49.563Z,91.10
2019-05-23T07:31:18.562Z,91.40
2019-05-23T07:34:01.273Z,91.40
2019-05-23T07:36:18.352Z,91.10
2019-05-23T07:38:47.336Z,91.40
2019-05-23T07:41:16.781Z,90.90
2019-05-23T07:43:46.284Z,91.20
2019-05-23T07:46:15.830Z,90.90
2019-05-23T07:48:44.786Z,90.60
2019-05-23T07:51:13.863Z,90.40
2019-05-23T07:54:11.341Z,89.70
2019-05-23T07:56:41.157Z,89.00
2019-05-23T07:59:10.239Z,89.20
2019-05-23T08:01:42.355Z,89.20
2019-05-23T08:04:21.031Z,89.10
2019-05-23T08:06:42.492Z,88.50
2019-05-23T08:09:13.518Z,88.30
2019-05-23T08:11:42.506Z,87.70
2019-05-23T08:14:12.321Z,86.10
2019-05-23T08:16:41.646Z,85.70
2019-05-23T08:19:10.724Z,84.10
2019-05-23T08:21:39.846Z,85.30
2019-05-23T08:24:09.597Z,86.20
2019-05-23T08:26:39.161Z,85.70
2019-05-23T08:31:39.882Z,83.50
2019-05-23T08:34:09.162Z,84.10
2019-05-23T08:36:38.537Z,85.00
2019-05-23T08:39:08.576Z,83.10
2019-05-23T08:41:38.040Z,84.40
2019-05-23T08:44:10.842Z,82.70
2019-05-23T08:46:38.123Z,82.40
2019-05-23T08:49:08.967Z,81.70
2019-05-23T08:51:38.375Z,78.10
2019-05-23T08:54:07.536Z,81.20
2019-05-23T08:56:37.349Z,81.20
2019-05-23T08:59:07.541Z,81.80
2019-05-23T09:01:37.224Z,82.50
2019-05-23T09:04:06.957Z,81.20
2019-05-23T09:06:36.095Z,80.50
2019-05-23T09:09:27.645Z,79.60
2019-05-23T09:11:40.254Z,80.40
2019-05-23T09:14:10.169Z,78.60
2019-05-23T09:16:39.697Z,77.40
2019-05-23T09:19:09.333Z,76.00
2019-05-23T09:21:38.973Z,73.90
2019-05-23T09:24:09.802Z,74.80
2019-05-23T09:26:38.777Z,76.20
2019-05-23T09:29:09.001Z,73.20
2019-05-23T09:31:38.072Z,76.20
2019-05-23T09:34:07.172Z,75.90
2019-05-23T09:36:36.497Z,74.20
2019-05-23T09:39:08.856Z,75.30
2019-05-23T09:41:37.328Z,70.10
2019-05-23T09:44:06.971Z,67.50
2019-05-23T09:46:36.043Z,69.30
2019-05-23T09:49:05.641Z,69.70
2019-05-23T09:51:34.700Z,72.50
2019-05-23T09:54:03.788Z,70.30
2019-05-23T09:56:32.955Z,70.80
2019-05-23T09:59:02.040Z,71.20
2019-05-23T10:01:31.184Z,72.90
2019-05-23T10:04:00.319Z,72.60
2019-05-23T10:06:29.435Z,72.40
2019-05-23T10:08:58.571Z,71.60
2019-05-23T10:11:27.699Z,70.70
2019-05-23T10:13:56.848Z,66.40
2019-05-23T10:16:25.989Z,67.80
2019-05-23T10:18:55.286Z,65.60
2019-05-23T10:21:24.658Z,65.90
2019-05-23T10:23:53.654Z,67.60
2019-05-23T10:26:22.777Z,68.30
2019-05-23T10:28:51.928Z,66.70
2019-05-23T10:31:21.485Z,64.00
2019-05-23T10:33:50.848Z,62.70
2019-05-23T10:36:20.283Z,67.40
2019-05-23T10:38:49.411Z,70.50
2019-05-23T10:41:18.519Z,70.00
2019-05-23T10:43:47.679Z,69.90
2019-05-23T10:46:16.916Z,70.70
2019-05-23T10:48:46.160Z,68.20
2019-05-23T10:51:15.302Z,68.20
2019-05-23T10:53:44.386Z,68.90
2019-05-23T10:56:14.466Z,69.80
2019-05-23T10:58:43.635Z,64.50
2019-05-23T11:01:13.056Z,65.00
2019-05-23T11:03:42.413Z,64.20
2019-05-23T11:06:16.033Z,65.00
2019-05-23T11:08:42.946Z,63.70
2019-05-23T11:11:14.536Z,62.50
2019-05-23T11:13:44.401Z,60.10
2019-05-23T11:16:13.563Z,62.80
2019-05-23T11:18:43.020Z,62.90
2019-05-23T11:21:12.204Z,62.70
2019-05-23T11:23:46.285Z,58.80
2019-05-23T11:26:15.376Z,62.20
2019-05-23T11:28:44.494Z,61.80
2019-05-23T11:31:13.670Z,61.00
2019-05-23T11:33:42.813Z,64.20
2019-05-23T11:36:12.956Z,64.70
2019-05-23T11:38:42.514Z,65.30
2019-05-23T11:41:12.079Z,69.30
2019-05-23T11:43:42.111Z,67.00
2019-05-23T11:46:21.511Z,67.90
2019-05-23T11:48:51.517Z,68.20
2019-05-23T11:51:25.081Z,68.40
2019-05-23T11:54:06.600Z,67.00
2019-05-23T11:56:23.423Z,66.40
2019-05-23T11:58:52.582Z,63.60
2019-05-23T12:01:32.514Z,65.50
2019-05-23T12:04:05.830Z,66.50
2019-05-23T12:06:54.479Z,67.00
2019-05-23T12:09:12.563Z,64.70
2019-05-23T12:11:42.645Z,63.20
2019-05-23T12:14:12.213Z,64.20
2019-05-23T12:16:41.832Z,69.30
2019-05-23T12:19:11.976Z,65.20
2019-05-23T12:21:41.144Z,64.30
2019-05-23T12:24:10.401Z,62.80
2019-05-23T12:26:39.671Z,63.90
2019-05-23T12:29:08.746Z,60.40
2019-05-23T12:31:37.824Z,66.30
2019-05-23T12:34:07.042Z,61.80
2019-05-23T12:36:36.271Z,60.80
2019-05-23T12:39:09.239Z,61.90
2019-05-23T12:41:38.482Z,59.10
2019-05-23T12:44:07.871Z,60.20
2019-05-23T12:46:37.012Z,63.00
2019-05-23T12:49:26.299Z,61.40
2019-05-23T12:51:55.979Z,61.10
2019-05-23T12:54:25.815Z,64.60
2019-05-23T12:56:56.281Z,59.60
2019-05-23T12:59:26.417Z,58.60
2019-05-23T13:01:56.804Z,58.60
2019-05-23T13:04:25.919Z,58.50
2019-05-23T13:06:55.323Z,57.00
2019-05-23T13:09:24.306Z,61.70
2019-05-23T13:11:53.426Z,61.40
2019-05-23T13:14:23.229Z,59.10
2019-05-23T13:16:52.639Z,59.10
2019-05-23T13:19:22.209Z,61.70
2019-05-23T13:21:51.331Z,57.10
2019-05-23T13:24:21.132Z,61.00
2019-05-23T13:26:50.400Z,61.00
2019-05-23T13:29:19.500Z,58.30
2019-05-23T13:31:48.582Z,58.30
2019-05-23T13:34:17.695Z,58.50
2019-05-23T13:36:46.967Z,57.90
2019-05-23T13:39:16.492Z,56.10
2019-05-23T13:41:45.561Z,54.80
2019-05-23T13:44:31.784Z,51.70
2019-05-23T13:46:45.568Z,53.90
2019-05-23T13:49:15.042Z,52.70
2019-05-23T13:51:44.342Z,53.60
2019-05-23T13:54:13.417Z,54.80
2019-05-23T13:56:47.348Z,53.70
2019-05-23T13:59:13.467Z,55.20
2019-05-23T14:01:42.896Z,52.70
2019-05-23T14:04:11.971Z,54.60
2019-05-23T14:06:40.972Z,54.80
2019-05-23T14:09:10.268Z,53.00
2019-05-23T14:11:39.287Z,51.10
2019-05-23T14:14:08.823Z,50.80
2019-05-23T14:16:50.298Z,48.60
2019-05-23T14:19:19.530Z,46.60
2019-05-23T14:21:48.735Z,50.50
2019-05-23T14:24:17.809Z,51.10
2019-05-23T14:26:54.222Z,51.10
2019-05-23T14:29:23.508Z,51.90
2019-05-23T14:32:00.965Z,50.80
2019-05-23T14:34:29.954Z,50.80
2019-05-23T14:37:16.513Z,47.80
2019-05-23T14:39:52.430Z,46.50
2019-05-23T14:42:39.515Z,49.10
2019-05-23T14:45:26.638Z,48.00
2019-05-23T14:48:02.043Z,48.60
2019-05-23T14:50:46.961Z,46.80
2019-05-23T14:53:18.526Z,44.10
2019-05-23T14:55:48.938Z,43.10
2019-05-23T14:58:18.059Z,42.30
2019-05-23T15:00:49.031Z,44.70
2019-05-23T15:03:18.656Z,42.40
2019-05-23T15:05:47.689Z,42.10
2019-05-23T15:08:16.765Z,42.00
2019-05-23T15:10:45.926Z,43.80
2019-05-23T15:13:15.142Z,42.70
2019-05-23T15:15:44.308Z,41.30
2019-05-23T15:18:13.983Z,40.50
2019-05-23T15:20:43.259Z,38.30
2019-05-23T15:23:12.348Z,39.50
2019-05-23T15:25:41.336Z,40.80
2019-05-23T15:28:10.468Z,39.00
2019-05-23T15:30:39.508Z,41.20
2019-05-23T15:33:08.688Z,42.10
2019-05-23T15:35:38.177Z,39.50
2019-05-23T15:38:07.467Z,39.60
2019-05-23T15:40:36.803Z,41.80
2019-05-23T15:43:09.488Z,41.50
2019-05-23T15:45:36.943Z,39.80
2019-05-23T15:48:06.008Z,40.40
2019-05-23T15:50:41.339Z,37.90
2019-05-23T15:53:32.557Z,38.50
2019-05-23T15:56:27.682Z,36.90
2019-05-23T15:59:13.410Z,39.30
2019-05-23T16:01:57.349Z,42.70
2019-05-23T16:04:26.847Z,44.00
2019-05-23T16:06:56.792Z,45.40
2019-05-23T16:09:30.220Z,41.00
2019-05-23T16:11:57.060Z,42.30
2019-05-23T16:14:26.685Z,45.00
2019-05-23T16:16:57.367Z,44.00
2019-05-23T16:19:26.887Z,44.90
2019-05-23T16:21:56.496Z,45.00
2019-05-23T16:24:26.323Z,41.60
2019-05-23T16:26:55.632Z,45.50
2019-05-23T16:29:24.908Z,44.40
2019-05-23T16:31:54.346Z,42.40
2019-05-23T16:34:23.898Z,41.50
2019-05-23T16:36:53.064Z,42.40
2019-05-23T16:39:22.597Z,41.30
2019-05-23T16:41:51.827Z,41.30
2019-05-23T16:44:20.975Z,41.70
2019-05-23T16:46:50.051Z,42.00
2019-05-23T16:49:19.187Z,40.50
2019-05-23T16:51:48.246Z,44.00
2019-05-23T16:54:19.421Z,42.80
2019-05-23T16:57:26.046Z,43.20
2019-05-23T17:00:16.888Z,40.60
2019-05-23T17:02:56.615Z,43.50
2019-05-23T17:05:41.809Z,43.90
2019-05-23T17:08:27.069Z,40.60
2019-05-23T17:11:01.146Z,43.60
2019-05-23T17:13:47.373Z,42.00
2019-05-23T17:16:38.530Z,41.70
2019-05-23T17:19:26.844Z,43.10
2019-05-23T17:22:04.504Z,46.00
2019-05-23T17:25:01.834Z,44.30
2019-05-23T17:27:58.931Z,43.00
2019-05-23T17:30:37.024Z,42.20
2019-05-23T17:33:07.587Z,43.10
2019-05-23T17:35:37.018Z,42.90
2019-05-23T17:38:06.212Z,43.50
2019-05-23T17:40:35.810Z,44.50
2019-05-23T17:43:04.942Z,44.20
2019-05-23T17:45:34.099Z,44.20
2019-05-23T17:48:03.755Z,45.30
2019-05-23T17:50:34.901Z,43.80
2019-05-23T17:53:04.132Z,45.20
2019-05-23T17:55:33.393Z,44.10
2019-05-23T17:58:02.664Z,44.40
2019-05-23T18:00:39.539Z,43.30
2019-05-23T18:03:08.827Z,46.30
2019-05-23T18:05:38.565Z,44.90
2019-05-23T18:08:10.052Z,45.40
2019-05-23T18:10:44.979Z,45.60
2019-05-23T18:13:11.061Z,47.00
2019-05-23T18:15:41.218Z,46.80
2019-05-23T18:18:10.744Z,46.90
2019-05-23T18:20:41.278Z,48.70
2019-05-23T18:23:11.291Z,47.70
2019-05-23T18:25:41.285Z,48.10
2019-05-23T18:28:12.245Z,48.90
2019-05-23T18:30:47.931Z,48.00
2019-05-23T18:33:18.211Z,49.20
2019-05-23T18:35:48.021Z,49.50
2019-05-23T18:38:17.233Z,49.00
2019-05-23T18:41:01.588Z,48.50
2019-05-23T18:43:17.764Z,49.70
2019-05-23T18:45:49.326Z,49.20
2019-05-23T18:48:18.834Z,50.10
2019-05-23T18:50:47.996Z,52.00
2019-05-23T18:53:18.093Z,52.80
2019-05-23T18:55:47.810Z,52.70
2019-05-23T18:58:19.634Z,53.80
2019-05-23T19:01:05.639Z,53.80
2019-05-23T19:03:34.906Z,54.10
2019-05-23T19:06:04.419Z,53.80
2019-05-23T19:08:52.763Z,55.30
2019-05-23T19:11:22.230Z,55.60
2019-05-23T19:13:51.556Z,56.00
2019-05-23T19:16:20.806Z,56.70
2019-05-23T19:18:49.889Z,57.50
2019-05-23T19:21:19.916Z,57.60
2019-05-23T19:23:49.456Z,56.80
2019-05-23T19:26:19.031Z,56.70
2019-05-23T19:28:48.175Z,59.10
2019-05-23T19:31:17.511Z,58.30
2019-05-23T19:33:48.086Z,58.70
2019-05-23T19:36:17.319Z,59.80
2019-05-23T19:38:46.756Z,59.10
2019-05-23T19:41:16.578Z,59.60
2019-05-23T19:43:48.041Z,60.30
2019-05-23T19:46:16.895Z,62.20
2019-05-23T19:48:47.082Z,64.30
2019-05-23T19:51:16.645Z,62.70
2019-05-23T19:53:46.529Z,62.30
2019-05-23T19:56:15.972Z,61.70
2019-05-23T19:58:45.158Z,60.60
2019-05-23T20:01:14.401Z,62.20
2019-05-23T20:03:43.814Z,63.70
2019-05-23T20:06:13.543Z,63.80
2019-05-23T20:08:44.159Z,66.50
2019-05-23T20:11:13.849Z,67.10
2019-05-23T20:13:43.002Z,65.60
2019-05-23T20:16:12.115Z,66.90
2019-05-23T20:18:41.339Z,69.10
2019-05-23T20:21:10.691Z,67.00
2019-05-23T20:23:39.773Z,65.60
2019-05-23T20:26:08.931Z,65.90
2019-05-23T20:28:40.030Z,64.90
2019-05-23T20:31:09.185Z,69.20
2019-05-23T20:33:38.331Z,70.10
2019-05-23T20:36:12.689Z,67.30
2019-05-23T20:38:42.681Z,69.40
2019-05-23T20:41:12.087Z,68.30
2019-05-23T20:43:41.274Z,67.20
2019-05-23T20:46:10.680Z,69.20
2019-05-23T20:48:40.188Z,71.60
2019-05-23T20:51:09.416Z,71.90
2019-05-23T20:53:38.557Z,72.70
2019-05-23T20:56:07.839Z,73.50
2019-05-23T20:58:36.919Z,72.80
2019-05-23T21:01:29.299Z,71.40
2019-05-23T21:03:59.090Z,73.70
2019-05-23T21:06:29.079Z,70.30
2019-05-23T21:08:58.294Z,69.00
2019-05-23T21:11:27.576Z,70.80
2019-05-23T21:13:56.909Z,73.70
2019-05-23T21:16:25.998Z,74.40
2019-05-23T21:18:55.123Z,74.80
2019-05-23T21:21:24.304Z,76.10
2019-05-23T21:23:56.667Z,73.20
2019-05-23T21:26:24.256Z,76.00
2019-05-23T21:28:53.441Z,73.50
2019-05-23T21:31:23.253Z,73.20
2019-05-23T21:33:52.451Z,72.80
2019-05-23T21:36:21.618Z,73.10
2019-05-23T21:38:50.810Z,71.00
2019-05-23T21:41:19.798Z,71.60
2019-05-23T21:43:50.733Z,70.50
2019-05-23T21:46:19.884Z,70.90
2019-05-23T21:48:49.434Z,70.70
2019-05-23T21:51:18.510Z,70.80
2019-05-23T21:53:47.672Z,70.50
2019-05-23T21:56:16.852Z,70.10
2019-05-23T21:58:46.071Z,70.40
2019-05-23T22:01:43.993Z,70.00
2019-05-23T22:04:22.658Z,71.00
2019-05-23T22:06:55.721Z,70.80
2019-05-23T22:09:25.778Z,71.80
2019-05-23T22:11:55.493Z,72.90
2019-05-23T22:14:24.666Z,71.70
2019-05-23T22:16:53.724Z,76.10
2019-05-23T22:19:23.933Z,74.10
2019-05-23T22:21:52.914Z,77.40
2019-05-23T22:24:22.231Z,74.20
2019-05-23T22:26:51.315Z,74.30
2019-05-23T22:29:20.571Z,73.80
2019-05-23T22:31:49.491Z,72.50
2019-05-23T22:34:26.303Z,75.70
2019-05-23T22:36:55.547Z,74.90
2019-05-23T22:39:24.691Z,74.50
2019-05-23T22:41:53.933Z,75.30
2019-05-23T22:44:23.260Z,76.80
2019-05-23T22:46:52.247Z,76.50
2019-05-23T22:49:21.409Z,77.00
2019-05-23T22:51:50.492Z,74.20
2019-05-23T22:54:19.484Z,74.40
2019-05-23T22:56:48.517Z,76.90
2019-05-23T22:59:17.574Z,76.40
2019-05-23T23:01:46.737Z,74.10
2019-05-23T23:04:16.281Z,77.30
2019-05-23T23:06:45.279Z,76.20
2019-05-23T23:09:14.491Z,81.60
2019-05-23T23:11:43.598Z,78.90
2019-05-23T23:14:12.701Z,74.30
2019-05-23T23:16:41.774Z,80.70
2019-05-23T23:19:11.022Z,78.20
2019-05-23T23:21:40.264Z,77.40
2019-05-23T23:24:09.416Z,75.10
2019-05-23T23:26:38.635Z,77.00
2019-05-23T23:29:07.783Z,74.30
2019-05-23T23:31:36.949Z,76.70
2019-05-23T23:34:06.181Z,76.90
2019-05-23T23:36:35.345Z,82.50
2019-05-23T23:39:06.770Z,81.90
2019-05-23T23:41:35.878Z,78.60
2019-05-23T23:44:07.679Z,80.10
2019-05-23T23:46:54.634Z,81.00
2019-05-23T23:49:41.557Z,81.10
2019-05-23T23:52:28.383Z,80.70
2019-05-23T23:55:15.378Z,79.00
2019-05-23T23:57:58.766Z,79.80
